sensor_id;sensor_type;location;lat;lon;timestamp;temperature;humidity
47114;DHT22;32867;51.556;6.832;2024-03-17T00:00:17;8.40;1.00
47114;DHT22;32867;51.556;6.832;2024-03-17T00:05:18;8.50;1.00
47114;DHT22;32867;51.556;6.832;2024-03-17T00:10:19;8.40;1.00
47114;DHT22;32867;51.556;6.832;2024-03-17T00:15:20;8.40;1.00
47114;DHT22;32867;51.556;6.832;2024-03-17T00:20:20;8.30;1.00
47114;DHT22;32867;51.556;6.832;2024-03-17T00:25:22;8.20;1.00
47114;DHT22;32867;51.556;6.832;2024-03-17T00:30:22;8.20;1.00
47114;DHT22;32867;51.556;6.832;2024-03-17T00:35:23;8.10;1.00
47114;DHT22;32867;51.556;6.832;2024-03-17T00:40:24;8.10;1.00
47114;DHT22;32867;51.556;6.832;2024-03-17T00:45:24;8.00;1.00
47114;DHT22;32867;51.556;6.832;2024-03-17T00:50:25;7.60;1.00
47114;DHT22;32867;51.556;6.832;2024-03-17T00:55:26;7.50;1.00
47114;DHT22;32867;51.556;6.832;2024-03-17T01:00:26;7.60;1.00
47114;DHT22;32867;51.556;6.832;2024-03-17T01:05:27;7.60;1.00
47114;DHT22;32867;51.556;6.832;2024-03-17T01:10:27;7.60;1.00
47114;DHT22;32867;51.556;6.832;2024-03-17T01:15:28;7.70;1.00
47114;DHT22;32867;51.556;6.832;2024-03-17T01:20:29;7.70;1.00
47114;DHT22;32867;51.556;6.832;2024-03-17T01:25:30;7.70;1.00
47114;DHT22;32867;51.556;6.832;2024-03-17T01:30:31;7.60;1.00
47114;DHT22;32867;51.556;6.832;2024-03-17T01:35:33;7.60;1.00
47114;DHT22;32867;51.556;6.832;2024-03-17T01:40:34;7.60;1.00
47114;DHT22;32867;51.556;6.832;2024-03-17T01:45:35;7.60;1.00
47114;DHT22;32867;51.556;6.832;2024-03-17T01:50:36;7.50;1.00
47114;DHT22;32867;51.556;6.832;2024-03-17T01:55:38;7.60;1.00
47114;DHT22;32867;51.556;6.832;2024-03-17T02:00:40;7.50;1.00
47114;DHT22;32867;51.556;6.832;2024-03-17T02:05:40;7.50;1.00
47114;DHT22;32867;51.556;6.832;2024-03-17T02:10:41;7.70;1.00
47114;DHT22;32867;51.556;6.832;2024-03-17T02:15:42;7.50;1.00
47114;DHT22;32867;51.556;6.832;2024-03-17T02:20:43;7.50;1.00
47114;DHT22;32867;51.556;6.832;2024-03-17T02:25:55;7.50;1.00
47114;DHT22;32867;51.556;6.832;2024-03-17T02:30:56;7.50;1.00
47114;DHT22;32867;51.556;6.832;2024-03-17T02:35:57;7.50;1.00
47114;DHT22;32867;51.556;6.832;2024-03-17T02:40:57;7.40;1.00
47114;DHT22;32867;51.556;6.832;2024-03-17T02:45:58;7.30;1.00
47114;DHT22;32867;51.556;6.832;2024-03-17T02:50:58;7.30;1.00
47114;DHT22;32867;51.556;6.832;2024-03-17T02:55:59;7.20;1.00
47114;DHT22;32867;51.556;6.832;2024-03-17T03:01:00;7.20;1.00
47114;DHT22;32867;51.556;6.832;2024-03-17T03:06:01;7.30;1.00
47114;DHT22;32867;51.556;6.832;2024-03-17T03:11:05;7.30;1.00
47114;DHT22;32867;51.556;6.832;2024-03-17T03:16:07;7.50;1.00
47114;DHT22;32867;51.556;6.832;2024-03-17T03:21:08;7.60;1.00
47114;DHT22;32867;51.556;6.832;2024-03-17T03:26:09;7.70;1.00
47114;DHT22;32867;51.556;6.832;2024-03-17T03:31:13;7.60;1.00
47114;DHT22;32867;51.556;6.832;2024-03-17T03:36:15;7.60;1.00
47114;DHT22;32867;51.556;6.832;2024-03-17T03:41:17;7.50;1.00
47114;DHT22;32867;51.556;6.832;2024-03-17T03:46:18;7.50;1.00
47114;DHT22;32867;51.556;6.832;2024-03-17T03:51:18;7.40;1.00
47114;DHT22;32867;51.556;6.832;2024-03-17T03:56:19;7.40;1.00
47114;DHT22;32867;51.556;6.832;2024-03-17T04:01:21;7.30;1.00
47114;DHT22;32867;51.556;6.832;2024-03-17T04:06:22;7.30;1.00
47114;DHT22;32867;51.556;6.832;2024-03-17T04:11:23;7.20;1.00
47114;DHT22;32867;51.556;6.832;2024-03-17T04:16:24;7.20;1.00
47114;DHT22;32867;51.556;6.832;2024-03-17T04:21:26;7.20;1.00
47114;DHT22;32867;51.556;6.832;2024-03-17T04:26:26;7.20;1.00
47114;DHT22;32867;51.556;6.832;2024-03-17T04:31:27;7.20;1.00
47114;DHT22;32867;51.556;6.832;2024-03-17T04:36:28;7.30;1.00
47114;DHT22;32867;51.556;6.832;2024-03-17T04:41:28;7.20;1.00
47114;DHT22;32867;51.556;6.832;2024-03-17T04:46:29;7.20;1.00
47114;DHT22;32867;51.556;6.832;2024-03-17T04:51:30;7.10;1.00
47114;DHT22;32867;51.556;6.832;2024-03-17T04:56:33;7.10;1.00
47114;DHT22;32867;51.556;6.832;2024-03-17T05:01:34;7.10;1.00
47114;DHT22;32867;51.556;6.832;2024-03-17T05:06:38;7.10;1.00
47114;DHT22;32867;51.556;6.832;2024-03-17T05:11:39;7.00;1.00
47114;DHT22;32867;51.556;6.832;2024-03-17T05:16:42;7.00;1.00
47114;DHT22;32867;51.556;6.832;2024-03-17T05:21:47;6.90;1.00
47114;DHT22;32867;51.556;6.832;2024-03-17T05:26:47;6.80;1.00
47114;DHT22;32867;51.556;6.832;2024-03-17T05:31:49;6.80;1.00
47114;DHT22;32867;51.556;6.832;2024-03-17T05:36:52;6.80;1.00
47114;DHT22;32867;51.556;6.832;2024-03-17T05:41:53;6.80;1.00
47114;DHT22;32867;51.556;6.832;2024-03-17T05:46:53;6.80;1.00
47114;DHT22;32867;51.556;6.832;2024-03-17T05:51:56;6.90;1.00
47114;DHT22;32867;51.556;6.832;2024-03-17T05:56:57;6.80;1.00
47114;DHT22;32867;51.556;6.832;2024-03-17T06:01:57;6.90;1.00
47114;DHT22;32867;51.556;6.832;2024-03-17T06:06:58;6.90;1.00
47114;DHT22;32867;51.556;6.832;2024-03-17T06:11:58;7.00;1.00
47114;DHT22;32867;51.556;6.832;2024-03-17T06:16:59;7.20;1.00
47114;DHT22;32867;51.556;6.832;2024-03-17T06:22:00;7.10;1.00
47114;DHT22;32867;51.556;6.832;2024-03-17T06:27:00;7.10;1.00
47114;DHT22;32867;51.556;6.832;2024-03-17T06:32:01;7.20;1.00
47114;DHT22;32867;51.556;6.832;2024-03-17T06:37:02;7.40;1.00
47114;DHT22;32867;51.556;6.832;2024-03-17T06:42:03;7.60;1.00
47114;DHT22;32867;51.556;6.832;2024-03-17T06:47:04;8.00;1.00
47114;DHT22;32867;51.556;6.832;2024-03-17T06:52:05;8.20;1.00
47114;DHT22;32867;51.556;6.832;2024-03-17T06:57:06;8.30;1.00
47114;DHT22;32867;51.556;6.832;2024-03-17T07:02:07;8.40;1.00
47114;DHT22;32867;51.556;6.832;2024-03-17T07:07:07;8.50;1.00
47114;DHT22;32867;51.556;6.832;2024-03-17T07:12:09;8.80;1.00
47114;DHT22;32867;51.556;6.832;2024-03-17T07:17:10;9.00;1.00
47114;DHT22;32867;51.556;6.832;2024-03-17T07:22:11;9.10;1.00
47114;DHT22;32867;51.556;6.832;2024-03-17T07:27:12;9.20;1.00
47114;DHT22;32867;51.556;6.832;2024-03-17T07:32:14;9.40;1.00
47114;DHT22;32867;51.556;6.832;2024-03-17T07:37:15;9.40;1.00
47114;DHT22;32867;51.556;6.832;2024-03-17T07:42:16;9.50;1.00
47114;DHT22;32867;51.556;6.832;2024-03-17T07:47:17;9.70;1.00
47114;DHT22;32867;51.556;6.832;2024-03-17T07:52:17;9.70;1.00
47114;DHT22;32867;51.556;6.832;2024-03-17T07:57:18;9.80;1.00
47114;DHT22;32867;51.556;6.832;2024-03-17T08:02:19;10.00;1.00
47114;DHT22;32867;51.556;6.832;2024-03-17T08:07:19;10.00;1.00
47114;DHT22;32867;51.556;6.832;2024-03-17T08:12:20;10.10;1.00
47114;DHT22;32867;51.556;6.832;2024-03-17T08:17:20;9.90;1.00
47114;DHT22;32867;51.556;6.832;2024-03-17T08:22:21;10.00;1.00
47114;DHT22;32867;51.556;6.832;2024-03-17T08:27:22;10.20;1.00
47114;DHT22;32867;51.556;6.832;2024-03-17T08:32:23;10.30;1.00
47114;DHT22;32867;51.556;6.832;2024-03-17T08:37:23;10.40;1.00
47114;DHT22;32867;51.556;6.832;2024-03-17T08:42:26;10.50;1.00
47114;DHT22;32867;51.556;6.832;2024-03-17T08:47:26;10.80;1.00
47114;DHT22;32867;51.556;6.832;2024-03-17T08:52:27;11.00;1.00
47114;DHT22;32867;51.556;6.832;2024-03-17T08:57:28;11.10;1.00
47114;DHT22;32867;51.556;6.832;2024-03-17T09:02:28;11.20;1.00
47114;DHT22;32867;51.556;6.832;2024-03-17T09:07:29;11.30;1.00
47114;DHT22;32867;51.556;6.832;2024-03-17T09:12:29;11.10;1.00
47114;DHT22;32867;51.556;6.832;2024-03-17T09:17:30;11.20;1.00
47114;DHT22;32867;51.556;6.832;2024-03-17T09:22:31;11.40;1.00
47114;DHT22;32867;51.556;6.832;2024-03-17T09:27:31;11.80;1.00
47114;DHT22;32867;51.556;6.832;2024-03-17T09:32:32;11.80;1.00
47114;DHT22;32867;51.556;6.832;2024-03-17T09:37:33;11.90;1.00
47114;DHT22;32867;51.556;6.832;2024-03-17T09:42:34;12.10;1.00
47114;DHT22;32867;51.556;6.832;2024-03-17T09:47:35;12.30;1.00
47114;DHT22;32867;51.556;6.832;2024-03-17T09:52:37;12.40;1.00
47114;DHT22;32867;51.556;6.832;2024-03-17T09:57:38;12.60;1.00
47114;DHT22;32867;51.556;6.832;2024-03-17T10:02:46;12.80;1.00
47114;DHT22;32867;51.556;6.832;2024-03-17T10:07:48;12.90;1.00
47114;DHT22;32867;51.556;6.832;2024-03-17T10:12:52;12.80;1.00
47114;DHT22;32867;51.556;6.832;2024-03-17T10:17:53;12.90;1.00
47114;DHT22;32867;51.556;6.832;2024-03-17T10:23:07;13.10;1.00
47114;DHT22;32867;51.556;6.832;2024-03-17T10:28:13;13.10;1.00
47114;DHT22;32867;51.556;6.832;2024-03-17T10:33:24;13.00;1.00
47114;DHT22;32867;51.556;6.832;2024-03-17T10:38:28;13.30;1.00
47114;DHT22;32867;51.556;6.832;2024-03-17T10:43:29;13.50;1.00
47114;DHT22;32867;51.556;6.832;2024-03-17T10:48:32;13.60;1.00
47114;DHT22;32867;51.556;6.832;2024-03-17T10:53:34;13.70;1.00
47114;DHT22;32867;51.556;6.832;2024-03-17T10:58:36;13.70;1.00
47114;DHT22;32867;51.556;6.832;2024-03-17T11:03:38;13.80;1.00
47114;DHT22;32867;51.556;6.832;2024-03-17T11:08:40;13.90;1.00
47114;DHT22;32867;51.556;6.832;2024-03-17T11:13:42;13.90;1.00
47114;DHT22;32867;51.556;6.832;2024-03-17T11:18:43;14.00;1.00
47114;DHT22;32867;51.556;6.832;2024-03-17T11:23:58;13.90;1.00
47114;DHT22;32867;51.556;6.832;2024-03-17T11:28:59;14.00;1.00
47114;DHT22;32867;51.556;6.832;2024-03-17T11:34:05;14.30;1.00
47114;DHT22;32867;51.556;6.832;2024-03-17T11:39:08;14.50;1.00
47114;DHT22;32867;51.556;6.832;2024-03-17T11:44:25;14.70;1.00
47114;DHT22;32867;51.556;6.832;2024-03-17T11:49:39;14.60;1.00
47114;DHT22;32867;51.556;6.832;2024-03-17T11:54:41;14.90;1.00
47114;DHT22;32867;51.556;6.832;2024-03-17T11:59:44;15.30;1.00
47114;DHT22;32867;51.556;6.832;2024-03-17T12:04:45;15.40;1.00
47114;DHT22;32867;51.556;6.832;2024-03-17T12:09:47;15.70;1.00
47114;DHT22;32867;51.556;6.832;2024-03-17T12:14:48;15.70;1.00
47114;DHT22;32867;51.556;6.832;2024-03-17T12:19:49;15.80;1.00
47114;DHT22;32867;51.556;6.832;2024-03-17T12:24:52;15.60;1.00
47114;DHT22;32867;51.556;6.832;2024-03-17T12:29:54;15.60;1.00
47114;DHT22;32867;51.556;6.832;2024-03-17T12:34:56;15.60;1.00
47114;DHT22;32867;51.556;6.832;2024-03-17T12:40:00;15.60;1.00
47114;DHT22;32867;51.556;6.832;2024-03-17T12:45:01;15.60;1.00
47114;DHT22;32867;51.556;6.832;2024-03-17T12:50:11;15.70;1.00
47114;DHT22;32867;51.556;6.832;2024-03-17T12:55:18;16.20;1.00
47114;DHT22;32867;51.556;6.832;2024-03-17T13:00:38;16.40;1.00
47114;DHT22;32867;51.556;6.832;2024-03-17T13:05:38;16.30;1.00
47114;DHT22;32867;51.556;6.832;2024-03-17T13:10:47;16.10;1.00
47114;DHT22;32867;51.556;6.832;2024-03-17T13:15:48;15.90;1.00
47114;DHT22;32867;51.556;6.832;2024-03-17T13:20:48;15.90;1.00
47114;DHT22;32867;51.556;6.832;2024-03-17T13:25:54;16.00;1.00
47114;DHT22;32867;51.556;6.832;2024-03-17T13:30:54;15.90;1.00
47114;DHT22;32867;51.556;6.832;2024-03-17T13:35:55;15.80;1.00
47114;DHT22;32867;51.556;6.832;2024-03-17T13:40:56;15.80;1.00
47114;DHT22;32867;51.556;6.832;2024-03-17T13:45:56;15.80;1.00
47114;DHT22;32867;51.556;6.832;2024-03-17T13:50:57;15.70;1.00
47114;DHT22;32867;51.556;6.832;2024-03-17T13:55:58;15.60;1.00
47114;DHT22;32867;51.556;6.832;2024-03-17T14:00:58;15.50;1.00
47114;DHT22;32867;51.556;6.832;2024-03-17T14:05:59;15.50;1.00
47114;DHT22;32867;51.556;6.832;2024-03-17T14:10:59;15.50;1.00
47114;DHT22;32867;51.556;6.832;2024-03-17T14:16:00;15.60;1.00
47114;DHT22;32867;51.556;6.832;2024-03-17T14:21:01;15.50;1.00
47114;DHT22;32867;51.556;6.832;2024-03-17T14:26:01;15.40;1.00
47114;DHT22;32867;51.556;6.832;2024-03-17T14:31:04;15.40;1.00
47114;DHT22;32867;51.556;6.832;2024-03-17T14:36:05;15.30;1.00
47114;DHT22;32867;51.556;6.832;2024-03-17T14:41:06;15.20;1.00
47114;DHT22;32867;51.556;6.832;2024-03-17T14:46:07;15.30;1.00
47114;DHT22;32867;51.556;6.832;2024-03-17T14:51:11;15.40;1.00
47114;DHT22;32867;51.556;6.832;2024-03-17T14:56:12;15.40;1.00
47114;DHT22;32867;51.556;6.832;2024-03-17T15:01:12;15.30;1.00
47114;DHT22;32867;51.556;6.832;2024-03-17T15:06:14;15.20;1.00
47114;DHT22;32867;51.556;6.832;2024-03-17T15:11:16;15.10;1.00
47114;DHT22;32867;51.556;6.832;2024-03-17T15:16:18;15.20;1.00
47114;DHT22;32867;51.556;6.832;2024-03-17T15:21:19;15.30;1.00
47114;DHT22;32867;51.556;6.832;2024-03-17T15:26:19;15.30;1.00
47114;DHT22;32867;51.556;6.832;2024-03-17T15:31:20;15.30;1.00
47114;DHT22;32867;51.556;6.832;2024-03-17T15:36:23;15.50;1.00
47114;DHT22;32867;51.556;6.832;2024-03-17T15:41:26;15.80;1.00
47114;DHT22;32867;51.556;6.832;2024-03-17T15:46:27;16.10;1.00
47114;DHT22;32867;51.556;6.832;2024-03-17T15:51:27;16.20;1.00
47114;DHT22;32867;51.556;6.832;2024-03-17T15:56:28;16.20;1.00
47114;DHT22;32867;51.556;6.832;2024-03-17T16:01:29;16.30;1.00
47114;DHT22;32867;51.556;6.832;2024-03-17T16:06:30;16.20;1.00
47114;DHT22;32867;51.556;6.832;2024-03-17T16:11:31;16.20;1.00
47114;DHT22;32867;51.556;6.832;2024-03-17T16:16:31;16.30;1.00
47114;DHT22;32867;51.556;6.832;2024-03-17T16:21:32;16.20;1.00
47114;DHT22;32867;51.556;6.832;2024-03-17T16:26:33;16.10;1.00
47114;DHT22;32867;51.556;6.832;2024-03-17T16:31:38;15.90;1.00
47114;DHT22;32867;51.556;6.832;2024-03-17T16:36:38;15.90;1.00
47114;DHT22;32867;51.556;6.832;2024-03-17T16:41:41;15.60;1.00
47114;DHT22;32867;51.556;6.832;2024-03-17T16:47:45;15.60;1.00
47114;DHT22;32867;51.556;6.832;2024-03-17T16:52:24;15.50;1.00
47114;DHT22;32867;51.556;6.832;2024-03-17T16:57:26;15.40;1.00
47114;DHT22;32867;51.556;6.832;2024-03-17T17:02:27;15.40;1.00
47114;DHT22;32867;51.556;6.832;2024-03-17T17:07:27;15.30;1.00
47114;DHT22;32867;51.556;6.832;2024-03-17T17:12:28;15.20;1.00
47114;DHT22;32867;51.556;6.832;2024-03-17T17:17:28;15.10;1.00
47114;DHT22;32867;51.556;6.832;2024-03-17T17:22:29;15.00;1.00
47114;DHT22;32867;51.556;6.832;2024-03-17T17:27:30;14.90;1.00
47114;DHT22;32867;51.556;6.832;2024-03-17T17:32:31;14.90;1.00
47114;DHT22;32867;51.556;6.832;2024-03-17T17:37:31;14.80;1.00
47114;DHT22;32867;51.556;6.832;2024-03-17T17:42:32;14.60;1.00
47114;DHT22;32867;51.556;6.832;2024-03-17T17:47:33;14.60;1.00
47114;DHT22;32867;51.556;6.832;2024-03-17T17:52:35;14.50;1.00
47114;DHT22;32867;51.556;6.832;2024-03-17T17:57:35;14.40;1.00
47114;DHT22;32867;51.556;6.832;2024-03-17T18:02:37;14.40;1.00
47114;DHT22;32867;51.556;6.832;2024-03-17T18:07:37;14.40;1.00
47114;DHT22;32867;51.556;6.832;2024-03-17T18:12:38;14.30;1.00
47114;DHT22;32867;51.556;6.832;2024-03-17T18:17:38;14.20;1.00
47114;DHT22;32867;51.556;6.832;2024-03-17T18:22:39;14.20;1.00
47114;DHT22;32867;51.556;6.832;2024-03-17T18:27:40;14.20;1.00
47114;DHT22;32867;51.556;6.832;2024-03-17T18:32:41;14.10;1.00
47114;DHT22;32867;51.556;6.832;2024-03-17T18:37:41;14.00;1.00
47114;DHT22;32867;51.556;6.832;2024-03-17T18:42:42;14.00;1.00
47114;DHT22;32867;51.556;6.832;2024-03-17T18:47:42;13.90;1.00
47114;DHT22;32867;51.556;6.832;2024-03-17T18:52:44;13.90;1.00
47114;DHT22;32867;51.556;6.832;2024-03-17T18:57:45;13.80;1.00
47114;DHT22;32867;51.556;6.832;2024-03-17T19:02:47;13.80;1.00
47114;DHT22;32867;51.556;6.832;2024-03-17T19:07:47;13.80;1.00
47114;DHT22;32867;51.556;6.832;2024-03-17T19:12:51;13.80;1.00
47114;DHT22;32867;51.556;6.832;2024-03-17T19:17:53;13.80;1.00
47114;DHT22;32867;51.556;6.832;2024-03-17T19:22:54;13.70;1.00
47114;DHT22;32867;51.556;6.832;2024-03-17T19:27:55;13.70;1.00
47114;DHT22;32867;51.556;6.832;2024-03-17T19:32:56;13.70;1.00
47114;DHT22;32867;51.556;6.832;2024-03-17T19:37:56;13.70;1.00
47114;DHT22;32867;51.556;6.832;2024-03-17T19:42:57;13.80;1.00
47114;DHT22;32867;51.556;6.832;2024-03-17T19:47:58;13.90;1.00
47114;DHT22;32867;51.556;6.832;2024-03-17T19:52:58;13.90;1.00
47114;DHT22;32867;51.556;6.832;2024-03-17T19:57:59;14.00;1.00
47114;DHT22;32867;51.556;6.832;2024-03-17T20:02:59;14.00;1.00
47114;DHT22;32867;51.556;6.832;2024-03-17T20:08:00;14.00;1.00
47114;DHT22;32867;51.556;6.832;2024-03-17T20:13:01;14.00;1.00
47114;DHT22;32867;51.556;6.832;2024-03-17T20:18:02;14.00;1.00
47114;DHT22;32867;51.556;6.832;2024-03-17T20:23:06;13.90;1.00
47114;DHT22;32867;51.556;6.832;2024-03-17T20:28:07;13.90;1.00
47114;DHT22;32867;51.556;6.832;2024-03-17T20:33:08;13.90;1.00
47114;DHT22;32867;51.556;6.832;2024-03-17T20:38:09;14.00;1.00
47114;DHT22;32867;51.556;6.832;2024-03-17T20:43:10;13.90;1.00
47114;DHT22;32867;51.556;6.832;2024-03-17T20:48:11;13.80;1.00
47114;DHT22;32867;51.556;6.832;2024-03-17T20:53:12;13.80;1.00
47114;DHT22;32867;51.556;6.832;2024-03-17T20:58:13;13.70;1.00
47114;DHT22;32867;51.556;6.832;2024-03-17T21:03:14;13.80;1.00
47114;DHT22;32867;51.556;6.832;2024-03-17T21:08:15;13.80;1.00
47114;DHT22;32867;51.556;6.832;2024-03-17T21:13:16;13.70;1.00
47114;DHT22;32867;51.556;6.832;2024-03-17T21:18:17;13.90;1.00
47114;DHT22;32867;51.556;6.832;2024-03-17T21:23:19;13.80;1.00
47114;DHT22;32867;51.556;6.832;2024-03-17T21:28:20;13.70;1.00
47114;DHT22;32867;51.556;6.832;2024-03-17T21:33:20;13.70;1.00
47114;DHT22;32867;51.556;6.832;2024-03-17T21:38:21;13.40;1.00
47114;DHT22;32867;51.556;6.832;2024-03-17T21:43:23;13.50;1.00
47114;DHT22;32867;51.556;6.832;2024-03-17T21:48:24;13.40;1.00
47114;DHT22;32867;51.556;6.832;2024-03-17T21:53:25;13.40;1.00
47114;DHT22;32867;51.556;6.832;2024-03-17T21:58:26;13.20;1.00
47114;DHT22;32867;51.556;6.832;2024-03-17T22:03:28;13.30;1.00
47114;DHT22;32867;51.556;6.832;2024-03-17T22:08:29;13.00;1.00
47114;DHT22;32867;51.556;6.832;2024-03-17T22:13:30;13.00;1.00
47114;DHT22;32867;51.556;6.832;2024-03-17T22:18:32;13.00;1.00
47114;DHT22;32867;51.556;6.832;2024-03-17T22:23:33;13.00;1.00
47114;DHT22;32867;51.556;6.832;2024-03-17T22:28:35;13.10;1.00
47114;DHT22;32867;51.556;6.832;2024-03-17T22:33:35;12.90;1.00
47114;DHT22;32867;51.556;6.832;2024-03-17T22:38:37;12.90;1.00
47114;DHT22;32867;51.556;6.832;2024-03-17T22:43:42;12.80;1.00
47114;DHT22;32867;51.556;6.832;2024-03-17T22:48:43;12.80;1.00
47114;DHT22;32867;51.556;6.832;2024-03-17T22:53:44;12.80;1.00
47114;DHT22;32867;51.556;6.832;2024-03-17T22:58:45;12.90;1.00
47114;DHT22;32867;51.556;6.832;2024-03-17T23:03:46;12.90;1.00
47114;DHT22;32867;51.556;6.832;2024-03-17T23:08:47;12.90;1.00
47114;DHT22;32867;51.556;6.832;2024-03-17T23:13:48;12.90;1.00
47114;DHT22;32867;51.556;6.832;2024-03-17T23:18:49;12.80;1.00
47114;DHT22;32867;51.556;6.832;2024-03-17T23:23:50;12.90;1.00
47114;DHT22;32867;51.556;6.832;2024-03-17T23:28:51;12.80;1.00
47114;DHT22;32867;51.556;6.832;2024-03-17T23:33:51;12.70;1.00
47114;DHT22;32867;51.556;6.832;2024-03-17T23:38:52;12.70;1.00
47114;DHT22;32867;51.556;6.832;2024-03-17T23:43:55;12.80;1.00
47114;DHT22;32867;51.556;6.832;2024-03-17T23:48:56;12.50;1.00
47114;DHT22;32867;51.556;6.832;2024-03-17T23:53:56;12.50;1.00
47114;DHT22;32867;51.556;6.832;2024-03-17T23:58:57;12.40;1.00
